Terminal Aerodrome Forecast
Issued by NWS

Home | Current Version | Previous Version | Graphics & Text | Print | Product List | Glossary On
Versions: 1 2 3 4 5 6 7 8 9 10 11 12 13 14 15 16 17 18 19
353
FTUS43 KABR 271130
TAFATY
TAF
KATY 271130Z 2712/2812 17006KT P6SM OVC120
     FM271400 23007KT P6SM OVC100
     FM272000 25010KT P6SM VCSH SCT100 BKN200
     FM280100 25010KT P6SM BKN150
     FM281000 29006KT P6SM SCT200=

USA.gov is the U.S. government's official web portal to all federal, state and local government web resources and services.